KVDI/VDI METAR and TAF weather

Enter ICAO airport designator
Station Type Date Time Source
KVDI METAR 2024/04/15 09:15 UTC NOAA

KVDI 150915Z AUTO 00000KT 10SM CLR 17/12 A3007 RMK AO2


Station Type Date Time Source
KVDI Decoded METAR 2024/04/15 09:15 UTC NOAA

Vidalia, Vidalia Municipal Airport, GA, United States (KVDI) 32-11-33N 082-22-19W
Apr 15, 2024 - 05:15 AM EDT / 2024.04.15 0915 UTC
Wind: Calm:0
Visibility: 10 mile(s):0
Sky conditions: clear
Temperature: 62 F (17 C)
Dew Point: 53 F (12 C)
Relative Humidity: 72%
Pressure (altimeter): 30.07 in. Hg (1018 hPa)
ob: KVDI 150915Z AUTO 00000KT 10SM CLR 17/12 A3007 RMK AO2
cycle: 9

Station Type Date Time Source
KVDI TAF UTC NOAA

Error!

Example: see airport list